createdAt,value
2022-10-13T00:00:04.166Z,79.52
2022-10-13T00:01:04.186Z,79.73
2022-10-13T00:02:04.145Z,79.52
2022-10-13T00:03:04.130Z,80.18
2022-10-13T00:04:04.129Z,80.76
2022-10-13T00:05:04.119Z,80.76
2022-10-13T00:06:04.099Z,80.65
2022-10-13T00:07:04.087Z,80.58
2022-10-13T00:08:04.081Z,81.41
2022-10-13T00:09:04.073Z,81.20
2022-10-13T00:10:04.056Z,81.30
2022-10-13T00:11:04.046Z,81.10
2022-10-13T00:12:04.036Z,81.41
2022-10-13T00:13:04.024Z,81.10
2022-10-13T00:14:04.019Z,81.16
2022-10-13T00:15:03.998Z,80.65
2022-10-13T00:16:03.992Z,80.96
2022-10-13T00:17:03.995Z,80.58
2022-10-13T00:18:03.978Z,81.00
2022-10-13T00:19:03.952Z,81.41
2022-10-13T00:20:03.947Z,81.30
2022-10-13T00:21:03.931Z,81.00
2022-10-13T00:22:03.970Z,80.96
2022-10-13T00:23:03.922Z,80.65
2022-10-13T00:24:03.901Z,80.55
2022-10-13T00:25:03.888Z,80.65
2022-10-13T00:26:03.880Z,79.93
2022-10-13T00:27:03.871Z,79.52
2022-10-13T00:28:03.867Z,79.63
2022-10-13T00:29:03.881Z,79.73
2022-10-13T00:30:03.836Z,79.18
2022-10-13T00:31:03.824Z,79.52
2022-10-13T00:32:03.814Z,79.22
2022-10-13T00:33:03.829Z,79.63
2022-10-13T00:34:03.792Z,79.32
2022-10-13T00:35:03.782Z,79.49
2022-10-13T00:36:03.770Z,79.08
2022-10-13T00:37:03.768Z,79.11
2022-10-13T00:38:03.764Z,79.83
2022-10-13T00:39:03.734Z,79.42
2022-10-13T00:40:03.741Z,79.63
2022-10-13T00:41:03.719Z,79.52
2022-10-13T00:42:03.706Z,80.04
2022-10-13T00:43:03.702Z,80.69
2022-10-13T00:44:03.687Z,80.69
2022-10-13T00:45:03.673Z,80.65
2022-10-13T00:46:03.661Z,80.79
2022-10-13T00:47:03.649Z,80.58
2022-10-13T00:48:03.649Z,80.76
2022-10-13T00:49:03.707Z,80.79
2022-10-13T00:50:03.615Z,81.30
2022-10-13T00:51:03.604Z,81.10
2022-10-13T00:52:03.594Z,81.51
2022-10-13T00:53:03.592Z,81.51
2022-10-13T00:54:03.578Z,81.71
2022-10-13T00:55:03.560Z,81.41
2022-10-13T00:56:03.550Z,81.62
2022-10-13T00:57:03.551Z,81.62
2022-10-13T00:58:05.370Z,81.41
2022-10-13T00:59:03.518Z,81.30
2022-10-13T01:00:03.505Z,81.00
2022-10-13T01:01:03.538Z,81.00
2022-10-13T01:02:03.483Z,81.00
2022-10-13T01:03:03.482Z,80.65
2022-10-13T01:04:03.468Z,80.86
2022-10-13T01:05:03.466Z,80.65
2022-10-13T01:06:03.441Z,80.65
2022-10-13T01:07:03.429Z,80.65
2022-10-13T01:08:03.430Z,80.45
2022-10-13T01:09:03.406Z,80.45
2022-10-13T01:10:03.397Z,80.76
2022-10-13T01:11:03.386Z,80.14
2022-10-13T01:12:03.374Z,79.73
2022-10-13T01:13:03.372Z,79.83
2022-10-13T01:14:03.359Z,79.73
2022-10-13T01:15:03.339Z,79.42
2022-10-13T01:16:03.332Z,79.73
2022-10-13T01:17:03.318Z,79.52
2022-10-13T01:18:03.322Z,79.38
2022-10-13T01:19:03.296Z,79.73
2022-10-13T01:20:03.289Z,79.63
2022-10-13T01:21:03.288Z,79.63
2022-10-13T01:22:03.264Z,79.52
2022-10-13T01:23:03.276Z,79.22
2022-10-13T01:24:03.243Z,79.32
2022-10-13T01:25:03.278Z,79.73
2022-10-13T01:26:03.220Z,80.58
2022-10-13T01:27:03.208Z,80.69
2022-10-13T01:28:03.211Z,80.90
2022-10-13T01:29:03.187Z,81.30
2022-10-13T01:30:03.175Z,81.20
2022-10-13T01:31:03.165Z,81.20
2022-10-13T01:32:03.156Z,81.30
2022-10-13T01:33:03.156Z,81.86
2022-10-13T01:34:03.140Z,82.10
2022-10-13T01:35:03.123Z,82.62
2022-10-13T01:36:03.110Z,82.92
2022-10-13T01:37:03.113Z,82.62
2022-10-13T01:38:03.100Z,83.03
2022-10-13T01:39:03.114Z,82.92
2022-10-13T01:40:03.066Z,82.89
2022-10-13T01:41:03.054Z,82.27
2022-10-13T01:42:03.043Z,82.68
2022-10-13T01:43:03.044Z,82.27
2022-10-13T01:44:03.024Z,82.37
2022-10-13T01:45:03.020Z,82.27
2022-10-13T01:46:02.999Z,82.17
2022-10-13T01:47:02.989Z,81.86
2022-10-13T01:48:02.988Z,81.82
2022-10-13T01:49:02.981Z,81.76
2022-10-13T01:50:02.957Z,81.30
2022-10-13T01:51:02.947Z,81.20
2022-10-13T01:52:02.934Z,81.00
2022-10-13T01:53:02.952Z,81.00
2022-10-13T01:54:02.910Z,80.79
2022-10-13T01:55:02.908Z,80.79
2022-10-13T01:56:02.889Z,81.14
2022-10-13T01:57:02.889Z,81.55
2022-10-13T01:58:02.877Z,81.76
2022-10-13T01:59:02.858Z,81.86
2022-10-13T02:00:02.845Z,82.06
2022-10-13T02:01:02.925Z,81.65
2022-10-13T02:02:02.825Z,82.17
2022-10-13T02:03:02.826Z,81.76
2022-10-13T02:04:02.802Z,82.03
2022-10-13T02:05:10.384Z,81.62
2022-10-13T02:06:02.780Z,82.03
2022-10-13T02:07:02.771Z,81.62
2022-10-13T02:08:02.772Z,81.71
2022-10-13T02:09:02.766Z,81.41
2022-10-13T02:10:02.737Z,81.41
2022-10-13T02:11:02.727Z,81.20
2022-10-13T02:12:02.719Z,81.34
2022-10-13T02:13:02.719Z,82.06
2022-10-13T02:14:02.691Z,82.57
2022-10-13T02:15:02.685Z,82.10
2022-10-13T02:16:02.673Z,82.89
2022-10-13T02:17:02.659Z,83.03
2022-10-13T02:18:02.657Z,83.03
2022-10-13T02:19:02.662Z,83.03
2022-10-13T02:20:02.626Z,83.23
2022-10-13T02:21:02.628Z,83.03
2022-10-13T02:22:02.604Z,83.03
2022-10-13T02:23:02.606Z,82.78
2022-10-13T02:24:02.582Z,82.68
2022-10-13T02:25:02.690Z,81.96
2022-10-13T02:26:02.562Z,82.06
2022-10-13T02:27:02.552Z,82.17
2022-10-13T02:28:02.549Z,81.55
2022-10-13T02:29:02.529Z,81.86
2022-10-13T02:30:02.522Z,81.55
2022-10-13T02:31:02.509Z,81.51
2022-10-13T02:32:02.496Z,81.96
2022-10-13T02:33:02.502Z,82.37
2022-10-13T02:34:02.475Z,82.37
2022-10-13T02:35:02.467Z,82.89
2022-10-13T02:36:02.451Z,82.89
2022-10-13T02:37:02.441Z,83.29
2022-10-13T02:38:02.440Z,82.89
2022-10-13T02:39:02.422Z,82.89
2022-10-13T02:40:02.417Z,82.99
2022-10-13T02:41:02.421Z,82.78
2022-10-13T02:42:02.386Z,82.89
2022-10-13T02:43:02.389Z,82.92
2022-10-13T02:44:02.364Z,83.33
2022-10-13T02:45:02.357Z,83.27
2022-10-13T02:46:02.340Z,83.44
2022-10-13T02:47:02.331Z,83.54
2022-10-13T02:48:02.333Z,83.58
2022-10-13T02:49:02.318Z,83.06
2022-10-13T02:50:02.298Z,83.75
2022-10-13T02:51:02.289Z,83.58
2022-10-13T02:52:02.277Z,83.99
2022-10-13T02:53:02.280Z,83.78
2022-10-13T02:54:02.254Z,84.20
2022-10-13T02:55:02.248Z,84.40
2022-10-13T02:56:02.243Z,85.06
2022-10-13T02:57:02.240Z,85.61
2022-10-13T02:58:02.227Z,85.82
2022-10-13T02:59:02.205Z,85.92
2022-10-13T03:00:02.194Z,86.54
2022-10-13T03:01:02.240Z,86.06
2022-10-13T03:02:02.169Z,86.43
2022-10-13T03:03:02.173Z,86.33
2022-10-13T03:04:02.159Z,86.58
2022-10-13T03:05:02.138Z,86.43
2022-10-13T03:06:02.125Z,86.37
2022-10-13T03:07:02.114Z,86.47
2022-10-13T03:08:02.115Z,87.57
2022-10-13T03:09:02.095Z,87.77
2022-10-13T03:10:02.082Z,87.19
2022-10-13T03:11:02.071Z,87.60
2022-10-13T03:12:02.059Z,87.60
2022-10-13T03:13:02.083Z,87.67
2022-10-13T03:14:02.037Z,87.57
2022-10-13T03:15:02.061Z,87.46
2022-10-13T03:16:02.017Z,86.74
2022-10-13T03:17:02.006Z,87.22
2022-10-13T03:18:02.007Z,86.80
2022-10-13T03:19:01.991Z,86.56
2022-10-13T03:20:01.976Z,85.63
2022-10-13T03:21:01.969Z,85.22
2022-10-13T03:22:01.954Z,85.02
2022-10-13T03:23:01.953Z,84.30
2022-10-13T03:24:01.991Z,84.56
2022-10-13T03:25:01.920Z,83.58
2022-10-13T03:26:01.912Z,83.99
2022-10-13T03:27:01.900Z,83.68
2022-10-13T03:28:01.898Z,83.37
2022-10-13T03:29:01.897Z,82.86
2022-10-13T03:30:01.865Z,83.41
2022-10-13T03:31:01.864Z,83.62
2022-10-13T03:32:01.846Z,83.41
2022-10-13T03:33:01.845Z,83.78
2022-10-13T03:34:01.827Z,83.99
2022-10-13T03:35:01.815Z,84.03
2022-10-13T03:36:01.808Z,83.78
2022-10-13T03:37:01.789Z,83.89
2022-10-13T03:38:01.790Z,83.99
2022-10-13T03:39:01.770Z,83.89
2022-10-13T03:40:01.756Z,83.89
2022-10-13T03:41:01.753Z,83.89
2022-10-13T03:42:01.735Z,83.78
2022-10-13T03:43:01.735Z,84.03
2022-10-13T03:44:01.748Z,84.34
2022-10-13T03:45:01.721Z,84.64
2022-10-13T03:46:01.693Z,84.95
2022-10-13T03:47:01.702Z,85.06
2022-10-13T03:48:01.677Z,85.30
2022-10-13T03:49:01.662Z,85.82
2022-10-13T03:50:01.651Z,86.16
2022-10-13T03:51:01.640Z,86.06
2022-10-13T03:52:01.628Z,86.47
2022-10-13T03:53:01.628Z,86.88
2022-10-13T03:54:01.606Z,86.58
2022-10-13T03:55:01.595Z,86.88
2022-10-13T03:56:01.585Z,86.85
2022-10-13T03:57:01.577Z,87.09
2022-10-13T03:58:01.576Z,86.33
2022-10-13T03:59:01.561Z,86.23
2022-10-13T04:00:01.556Z,86.43
2022-10-13T04:01:01.667Z,86.47
2022-10-13T04:02:01.583Z,86.47
2022-10-13T04:03:01.520Z,88.12
2022-10-13T04:04:01.500Z,87.60
2022-10-13T04:05:01.493Z,87.60
2022-10-13T04:06:01.477Z,88.26
2022-10-13T04:07:01.477Z,87.81
2022-10-13T04:08:01.454Z,88.53
2022-10-13T04:09:01.445Z,88.23
2022-10-13T04:10:01.434Z,87.60
2022-10-13T04:11:01.431Z,88.23
2022-10-13T04:12:01.424Z,87.60
2022-10-13T04:13:01.434Z,87.67
2022-10-13T04:14:01.390Z,87.26
2022-10-13T04:15:01.380Z,87.05
2022-10-13T04:16:01.370Z,86.64
2022-10-13T04:17:01.386Z,86.19
2022-10-13T04:18:01.350Z,86.70
2022-10-13T04:19:01.336Z,85.92
2022-10-13T04:20:01.333Z,85.71
2022-10-13T04:21:01.315Z,86.33
2022-10-13T04:22:01.315Z,86.27
2022-10-13T04:23:01.294Z,86.93
2022-10-13T04:24:01.286Z,87.54
2022-10-13T04:25:01.312Z,87.34
2022-10-13T04:26:01.264Z,87.34
2022-10-13T04:27:01.267Z,88.57
2022-10-13T04:28:01.239Z,87.85
2022-10-13T04:29:01.230Z,88.23
2022-10-13T04:30:01.216Z,88.33
2022-10-13T04:31:01.209Z,87.51
2022-10-13T04:32:01.201Z,88.08
2022-10-13T04:33:01.213Z,88.02
2022-10-13T04:34:01.173Z,87.87
2022-10-13T04:35:01.166Z,87.46
2022-10-13T04:36:01.155Z,87.36
2022-10-13T04:37:01.143Z,87.67
2022-10-13T04:38:01.143Z,87.26
2022-10-13T04:39:01.122Z,87.57
2022-10-13T04:40:01.108Z,86.70
2022-10-13T04:41:01.106Z,86.29
2022-10-13T04:42:01.088Z,86.50
2022-10-13T04:43:01.092Z,86.15
2022-10-13T04:44:01.066Z,85.94
2022-10-13T04:45:01.061Z,85.94
2022-10-13T04:46:01.044Z,86.25
2022-10-13T04:47:01.036Z,85.53
2022-10-13T04:48:01.098Z,85.57
2022-10-13T04:49:01.031Z,85.78
2022-10-13T04:50:01.001Z,86.40
2022-10-13T04:51:00.991Z,86.19
2022-10-13T04:52:00.984Z,85.98
2022-10-13T04:53:01.019Z,86.08
2022-10-13T04:54:00.957Z,86.19
2022-10-13T04:55:00.949Z,85.78
2022-10-13T04:56:00.938Z,85.78
2022-10-13T04:57:00.926Z,86.08
2022-10-13T04:58:00.924Z,86.46
2022-10-13T04:59:00.907Z,85.43
2022-10-13T05:00:00.893Z,85.74
2022-10-13T05:01:00.931Z,85.94
2022-10-13T05:02:00.874Z,85.74
2022-10-13T05:03:00.870Z,85.53
2022-10-13T05:04:00.865Z,85.12
2022-10-13T05:05:00.857Z,85.43
2022-10-13T05:06:00.827Z,85.53
2022-10-13T05:07:18.316Z,85.22
2022-10-13T05:08:01.816Z,85.18
2022-10-13T05:09:00.797Z,84.67
2022-10-13T05:10:00.787Z,84.67
2022-10-13T05:11:00.773Z,84.98
2022-10-13T05:12:00.761Z,85.18
2022-10-13T05:13:00.767Z,85.12
2022-10-13T05:14:00.738Z,85.49
2022-10-13T05:15:00.735Z,85.63
2022-10-13T05:16:00.719Z,85.70
2022-10-13T05:17:00.708Z,85.90
2022-10-13T05:18:00.708Z,86.46
2022-10-13T05:19:00.687Z,86.21
2022-10-13T05:20:00.676Z,85.90
2022-10-13T05:21:00.680Z,85.70
2022-10-13T05:22:00.652Z,85.60
2022-10-13T05:23:00.656Z,86.32
2022-10-13T05:24:00.628Z,86.21
2022-10-13T05:25:00.625Z,85.70
2022-10-13T05:26:00.610Z,86.15
2022-10-13T05:27:00.602Z,86.25
2022-10-13T05:28:00.604Z,86.97
2022-10-13T05:29:00.588Z,87.49
2022-10-13T05:30:00.592Z,87.59
2022-10-13T05:31:00.556Z,87.45
2022-10-13T05:32:00.543Z,87.34
2022-10-13T05:33:00.548Z,87.38
2022-10-13T05:34:00.524Z,87.38
2022-10-13T05:35:00.511Z,87.79
2022-10-13T05:36:00.499Z,87.75
2022-10-13T05:37:00.638Z,87.28
2022-10-13T05:38:00.505Z,87.45
2022-10-13T05:39:00.478Z,87.34
2022-10-13T05:40:00.467Z,87.75
2022-10-13T05:41:00.468Z,87.45
2022-10-13T05:42:00.434Z,87.75
2022-10-13T05:43:00.478Z,87.30
2022-10-13T05:44:00.416Z,86.27
2022-10-13T05:45:00.404Z,85.66
2022-10-13T05:46:00.393Z,85.80
2022-10-13T05:47:05.025Z,86.21
2022-10-13T05:48:01.366Z,86.42
2022-10-13T05:49:00.360Z,86.42
2022-10-13T05:50:00.344Z,86.17
2022-10-13T05:51:00.337Z,86.27
2022-10-13T05:52:00.354Z,86.48
2022-10-13T05:53:00.331Z,85.97
2022-10-13T05:54:00.302Z,85.76
2022-10-13T05:55:00.298Z,85.46
2022-10-13T05:56:00.281Z,85.66
2022-10-13T05:57:00.283Z,86.21
2022-10-13T05:58:00.257Z,86.32
2022-10-13T05:59:00.251Z,86.21
2022-10-13T06:00:00.240Z,87.34
2022-10-13T06:01:00.225Z,87.13
2022-10-13T06:02:00.274Z,87.34
2022-10-13T06:03:00.204Z,87.13
2022-10-13T06:04:00.194Z,87.55
2022-10-13T06:05:00.183Z,87.24
2022-10-13T06:06:00.174Z,87.40
2022-10-13T06:07:00.173Z,87.30
2022-10-13T06:08:00.150Z,87.20
2022-10-13T06:09:00.164Z,86.17
2022-10-13T06:10:00.138Z,86.24
2022-10-13T06:11:00.114Z,86.24
2022-10-13T06:12:00.119Z,85.62
2022-10-13T06:13:00.094Z,85.31
2022-10-13T06:14:00.089Z,84.80
2022-10-13T06:15:00.085Z,85.00
2022-10-13T06:16:00.066Z,85.04
2022-10-13T06:17:00.086Z,85.66
2022-10-13T06:18:00.041Z,85.90
2022-10-13T06:19:00.027Z,86.21
2022-10-13T06:20:00.022Z,87.28
2022-10-13T06:21:00.007Z,87.28
2022-10-13T06:22:03.460Z,87.34
2022-10-13T06:22:59.987Z,86.72
2022-10-13T06:23:59.975Z,87.51
2022-10-13T06:24:59.977Z,87.51
2022-10-13T06:25:59.954Z,86.79
2022-10-13T06:26:59.955Z,86.99
2022-10-13T06:27:59.932Z,86.54
2022-10-13T06:29:00.148Z,86.13
2022-10-13T06:29:59.913Z,86.13
2022-10-13T06:30:59.901Z,85.93
2022-10-13T06:31:59.889Z,85.62
2022-10-13T06:32:59.885Z,85.31
2022-10-13T06:33:59.866Z,84.76
2022-10-13T06:34:59.859Z,84.86
2022-10-13T06:35:59.844Z,84.82
2022-10-13T06:36:59.836Z,84.31
2022-10-13T06:37:59.854Z,84.00
2022-10-13T06:38:59.817Z,83.49
2022-10-13T06:39:59.804Z,83.86
2022-10-13T06:40:59.869Z,83.45
2022-10-13T06:41:59.778Z,83.04
2022-10-13T06:42:59.778Z,82.83
2022-10-13T06:43:59.758Z,82.01
2022-10-13T06:44:59.746Z,82.32
2022-10-13T06:45:59.736Z,81.77
2022-10-13T06:46:59.723Z,82.22
2022-10-13T06:47:59.737Z,82.22
2022-10-13T06:48:59.700Z,82.01
2022-10-13T06:49:59.697Z,81.81
2022-10-13T06:50:59.681Z,82.56
2022-10-13T06:51:59.670Z,83.42
2022-10-13T06:52:59.701Z,83.83
2022-10-13T06:53:59.651Z,83.83
2022-10-13T06:54:59.637Z,83.83
2022-10-13T06:55:59.627Z,84.41
2022-10-13T06:56:59.635Z,83.69
2022-10-13T06:57:59.614Z,83.90
2022-10-13T06:58:59.599Z,83.80
2022-10-13T06:59:59.586Z,83.69
2022-10-13T07:00:59.646Z,83.80
2022-10-13T07:01:59.567Z,83.18
2022-10-13T07:02:59.572Z,83.07
2022-10-13T07:03:59.542Z,83.55
2022-10-13T07:04:59.530Z,83.76
2022-10-13T07:05:59.521Z,83.25
2022-10-13T07:06:59.517Z,83.34
2022-10-13T07:07:59.521Z,83.14
2022-10-13T07:08:59.486Z,83.04
2022-10-13T07:09:59.488Z,83.10
2022-10-13T07:10:59.462Z,82.90
2022-10-13T07:11:59.480Z,83.00
2022-10-13T07:12:59.459Z,82.65
2022-10-13T07:13:59.433Z,82.28
2022-10-13T07:14:59.422Z,81.73
2022-10-13T07:15:59.427Z,82.08
2022-10-13T07:16:59.415Z,82.04
2022-10-13T07:17:59.391Z,82.14
2022-10-13T07:18:59.376Z,81.94
2022-10-13T07:20:01.298Z,82.04
2022-10-13T07:21:00.354Z,81.32
2022-10-13T07:21:59.345Z,81.49
2022-10-13T07:22:59.353Z,81.38
2022-10-13T07:23:59.343Z,80.94
2022-10-13T07:24:59.358Z,80.69
2022-10-13T07:25:59.301Z,80.32
2022-10-13T07:27:02.768Z,77.38
2022-10-13T07:28:00.278Z,77.08
2022-10-13T07:28:59.410Z,76.66
2022-10-13T07:29:59.267Z,73.84
2022-10-13T07:30:59.244Z,71.60
2022-10-13T07:31:59.249Z,69.70
2022-10-13T07:32:59.223Z,68.72
2022-10-13T07:33:59.228Z,69.13
2022-10-13T07:34:59.202Z,68.99
2022-10-13T07:35:59.192Z,67.80
2022-10-13T07:36:59.189Z,68.82
2022-10-13T07:37:59.172Z,69.57
2022-10-13T07:38:59.157Z,70.18
2022-10-13T07:39:59.147Z,69.90
2022-10-13T07:40:59.140Z,70.62
2022-10-13T07:41:59.150Z,71.02
2022-10-13T07:42:59.115Z,71.06
2022-10-13T07:43:59.129Z,71.47
2022-10-13T07:44:59.108Z,71.70
2022-10-13T07:45:59.093Z,71.64
2022-10-13T07:46:59.068Z,71.33
2022-10-13T07:47:59.071Z,70.72
2022-10-13T07:48:59.071Z,70.79
2022-10-13T07:49:59.054Z,69.91
2022-10-13T07:50:59.057Z,68.79
2022-10-13T07:51:59.016Z,66.88
2022-10-13T07:52:59.058Z,65.39
2022-10-13T07:53:58.995Z,63.71
2022-10-13T07:54:58.994Z,62.85
2022-10-13T07:55:58.973Z,61.07
2022-10-13T07:56:58.971Z,59.50
2022-10-13T07:57:58.951Z,58.14
2022-10-13T07:58:58.939Z,57.60
2022-10-13T07:59:58.929Z,56.37
2022-10-13T08:00:59.565Z,56.27
2022-10-13T08:01:58.951Z,56.04
2022-10-13T08:02:59.006Z,56.34
2022-10-13T08:03:58.887Z,55.18
2022-10-13T08:04:58.874Z,54.58
2022-10-13T08:05:58.868Z,54.15
2022-10-13T08:06:58.890Z,53.82
2022-10-13T08:07:58.855Z,53.02
2022-10-13T08:08:58.829Z,52.69
2022-10-13T08:09:58.842Z,52.80
2022-10-13T08:10:58.811Z,53.32
2022-10-13T08:12:00.965Z,53.42
2022-10-13T08:12:58.799Z,53.22
2022-10-13T08:13:58.792Z,53.75
2022-10-13T08:15:00.598Z,54.30
2022-10-13T08:16:58.773Z,55.87
2022-10-13T08:17:58.736Z,56.40
2022-10-13T08:18:58.717Z,57.53
2022-10-13T08:19:58.708Z,58.19
2022-10-13T08:21:23.970Z,58.92
2022-10-13T08:22:00.305Z,59.76
2022-10-13T08:22:58.676Z,59.76
2022-10-13T08:23:58.664Z,60.19
2022-10-13T08:24:58.653Z,61.20
2022-10-13T08:25:58.649Z,60.60
2022-10-13T08:26:58.640Z,60.89
2022-10-13T08:28:00.645Z,60.69
2022-10-13T08:29:16.494Z,61.10
2022-10-13T08:29:59.598Z,61.43
2022-10-13T08:30:58.734Z,62.24
2022-10-13T08:31:58.592Z,62.24
2022-10-13T08:32:58.597Z,62.95
2022-10-13T08:33:58.557Z,62.24
2022-10-13T08:34:58.544Z,62.24
2022-10-13T08:35:58.542Z,62.85
2022-10-13T08:36:58.543Z,62.24
2022-10-13T08:37:58.530Z,62.24
2022-10-13T08:38:58.503Z,62.34
2022-10-13T08:39:58.497Z,62.34
2022-10-13T08:40:58.479Z,62.95
2022-10-13T08:41:58.485Z,62.54
2022-10-13T08:43:00.497Z,62.74
2022-10-13T08:44:40.966Z,62.24
2022-10-13T08:45:35.821Z,62.74
2022-10-13T08:45:59.428Z,62.51
2022-10-13T08:46:58.443Z,62.92
2022-10-13T08:47:58.406Z,62.82
2022-10-13T08:48:58.411Z,61.80
2022-10-13T08:50:00.450Z,61.88
2022-10-13T08:50:58.403Z,60.84
2022-10-13T08:51:58.391Z,60.61
2022-10-13T08:52:58.373Z,60.25
2022-10-13T08:53:58.389Z,59.24
2022-10-13T08:54:58.337Z,59.55
2022-10-13T08:55:58.327Z,58.31
2022-10-13T08:56:58.354Z,58.81
2022-10-13T08:57:58.302Z,58.81
2022-10-13T08:58:58.294Z,58.71
2022-10-13T08:59:58.303Z,58.78
2022-10-13T09:00:58.266Z,58.61
2022-10-13T09:01:58.341Z,59.55
2022-10-13T09:02:58.305Z,59.95
2022-10-13T09:03:58.233Z,60.05
2022-10-13T09:04:58.242Z,60.51
2022-10-13T09:05:58.211Z,61.41
2022-10-13T09:06:58.223Z,62.02
2022-10-13T09:07:58.194Z,62.96
2022-10-13T09:08:58.180Z,62.55
2022-10-13T09:09:58.169Z,62.45
2022-10-13T09:10:58.156Z,62.05
2022-10-13T09:11:58.171Z,62.15
2022-10-13T09:12:58.134Z,63.09
2022-10-13T09:13:58.126Z,63.49
2022-10-13T09:14:58.113Z,63.49
2022-10-13T09:15:58.103Z,63.12
2022-10-13T09:16:58.090Z,63.73
2022-10-13T09:17:58.097Z,64.64
2022-10-13T09:18:58.070Z,64.97
2022-10-13T09:19:58.060Z,65.37
2022-10-13T09:20:58.074Z,65.37
2022-10-13T09:21:58.039Z,66.41
2022-10-13T09:22:58.039Z,65.91
2022-10-13T09:23:58.050Z,66.82
2022-10-13T09:24:58.005Z,66.41
2022-10-13T09:25:57.996Z,66.52
2022-10-13T09:26:57.983Z,66.95
2022-10-13T09:27:57.986Z,66.61
2022-10-13T09:28:58.033Z,67.25
2022-10-13T09:29:57.954Z,67.66
2022-10-13T09:30:57.942Z,67.76
2022-10-13T09:31:57.946Z,68.10
2022-10-13T09:32:57.932Z,68.50
2022-10-13T09:33:57.908Z,68.80
2022-10-13T09:34:57.898Z,69.24
2022-10-13T09:35:57.894Z,69.41
2022-10-13T09:36:57.891Z,69.10
2022-10-13T09:37:57.880Z,69.31
2022-10-13T09:38:57.854Z,69.14
2022-10-13T09:39:57.845Z,69.54
2022-10-13T09:40:57.835Z,69.95
2022-10-13T09:41:57.826Z,69.74
2022-10-13T09:42:57.819Z,69.51
2022-10-13T09:43:57.799Z,69.54
2022-10-13T09:44:57.789Z,69.44
2022-10-13T09:45:57.785Z,69.61
2022-10-13T09:46:57.766Z,70.36
2022-10-13T09:47:57.765Z,70.32
2022-10-13T09:48:57.752Z,70.12
2022-10-13T09:49:57.753Z,70.12
2022-10-13T09:50:57.724Z,69.95
2022-10-13T09:51:57.715Z,70.15
2022-10-13T09:52:57.724Z,70.05
2022-10-13T09:53:57.690Z,70.22
2022-10-13T09:54:57.680Z,69.92
2022-10-13T09:55:57.668Z,69.81
2022-10-13T09:56:57.662Z,70.22
2022-10-13T09:57:57.656Z,70.42
2022-10-13T09:58:57.634Z,69.41
2022-10-13T09:59:57.704Z,69.48
2022-10-13T10:00:57.654Z,69.58
2022-10-13T10:01:57.602Z,69.38
2022-10-13T10:02:57.603Z,69.68
2022-10-13T10:03:57.722Z,69.68
2022-10-13T10:04:57.569Z,69.68
2022-10-13T10:05:57.666Z,69.75
2022-10-13T10:06:57.546Z,69.95
2022-10-13T10:07:57.574Z,69.45
2022-10-13T10:09:03.347Z,69.75
2022-10-13T10:09:58.533Z,69.45
2022-10-13T10:10:57.515Z,69.45
2022-10-13T10:11:57.498Z,68.60
2022-10-13T10:12:57.491Z,67.86
2022-10-13T10:13:57.470Z,67.76
2022-10-13T10:14:57.526Z,66.82
2022-10-13T10:15:57.448Z,66.89
2022-10-13T10:16:57.444Z,65.95
2022-10-13T10:17:57.445Z,65.52
2022-10-13T10:18:58.953Z,64.78
2022-10-13T10:19:57.410Z,64.78
2022-10-13T10:20:57.420Z,64.28
2022-10-13T10:21:57.388Z,64.15
2022-10-13T10:22:57.385Z,63.95
2022-10-13T10:23:57.366Z,63.95
2022-10-13T10:24:57.445Z,64.05
2022-10-13T10:25:57.339Z,63.85
2022-10-13T10:26:57.330Z,63.98
2022-10-13T10:27:57.331Z,64.38
2022-10-13T10:28:57.357Z,64.28
2022-10-13T10:29:57.295Z,64.98
2022-10-13T10:30:57.292Z,64.89
2022-10-13T10:31:57.272Z,65.32
2022-10-13T10:32:57.297Z,65.72
2022-10-13T10:33:57.250Z,65.52
2022-10-13T10:34:57.241Z,66.05
2022-10-13T10:35:57.235Z,65.95
2022-10-13T10:36:57.253Z,66.36
2022-10-13T10:37:57.205Z,65.65
2022-10-13T10:38:57.210Z,66.02
2022-10-13T10:39:57.187Z,65.75
2022-10-13T10:40:57.253Z,65.42
2022-10-13T10:41:57.174Z,65.92
2022-10-13T10:42:57.156Z,65.55
2022-10-13T10:43:57.143Z,65.75
2022-10-13T10:44:57.132Z,66.66
2022-10-13T10:45:57.120Z,66.29
2022-10-13T10:46:57.128Z,67.10
2022-10-13T10:47:57.100Z,66.89
2022-10-13T10:48:57.095Z,67.70
2022-10-13T10:49:57.078Z,67.60
2022-10-13T10:50:57.070Z,66.99
2022-10-13T10:51:57.073Z,67.60
2022-10-13T10:52:57.049Z,67.70
2022-10-13T10:53:57.037Z,67.83
2022-10-13T10:54:57.027Z,67.60
2022-10-13T10:55:57.015Z,67.60
2022-10-13T10:56:57.031Z,66.86
2022-10-13T10:57:56.995Z,67.50
2022-10-13T10:58:56.989Z,67.60
2022-10-13T10:59:56.973Z,67.50
2022-10-13T11:00:56.971Z,67.90
2022-10-13T11:01:57.010Z,67.70
2022-10-13T11:02:56.943Z,67.70
2022-10-13T11:03:56.928Z,67.47
2022-10-13T11:04:56.919Z,67.16
2022-10-13T11:05:56.908Z,66.96
2022-10-13T11:06:56.973Z,67.70
2022-10-13T11:07:56.887Z,67.50
2022-10-13T11:08:56.878Z,68.51
2022-10-13T11:09:56.867Z,68.41
2022-10-13T11:10:56.858Z,67.90
2022-10-13T11:11:56.857Z,68.44
2022-10-13T11:12:56.844Z,68.10
2022-10-13T11:13:56.819Z,68.30
2022-10-13T11:14:56.811Z,67.30
2022-10-13T11:15:56.803Z,68.51
2022-10-13T11:16:56.795Z,68.51
2022-10-13T11:17:56.773Z,68.41
2022-10-13T11:18:56.763Z,67.57
2022-10-13T11:19:56.751Z,67.60
2022-10-13T11:20:56.743Z,67.40
2022-10-13T11:21:56.741Z,68.10
2022-10-13T11:22:56.721Z,68.71
2022-10-13T11:24:01.796Z,68.51
2022-10-13T11:24:57.701Z,68.51
2022-10-13T11:25:56.688Z,68.51
2022-10-13T11:26:56.687Z,68.41
2022-10-13T11:27:56.664Z,68.41
2022-10-13T11:28:56.711Z,68.41
2022-10-13T11:29:56.757Z,68.41
2022-10-13T11:30:56.636Z,68.57
2022-10-13T11:31:56.634Z,68.48
2022-10-13T11:32:56.669Z,68.57
2022-10-13T11:33:56.601Z,67.57
2022-10-13T11:34:56.590Z,67.57
2022-10-13T11:35:56.577Z,67.67
2022-10-13T11:36:56.580Z,68.37
2022-10-13T11:38:06.780Z,67.67
2022-10-13T11:38:57.545Z,68.51
2022-10-13T11:39:56.579Z,68.48
2022-10-13T11:40:56.539Z,68.51
2022-10-13T11:41:56.525Z,67.50
2022-10-13T11:42:58.512Z,68.61
2022-10-13T11:43:56.490Z,68.81
2022-10-13T11:44:56.503Z,69.21
2022-10-13T11:45:56.470Z,69.24
2022-10-13T11:46:56.495Z,69.01
2022-10-13T11:47:56.529Z,69.11
2022-10-13T11:48:56.438Z,68.91
2022-10-13T11:49:56.425Z,68.37
2022-10-13T11:50:56.414Z,68.98
2022-10-13T11:51:56.411Z,67.67
2022-10-13T11:52:56.396Z,67.67
2022-10-13T11:53:56.384Z,66.83
2022-10-13T11:54:56.373Z,67.23
2022-10-13T11:55:56.359Z,66.63
2022-10-13T11:56:56.390Z,66.42
2022-10-13T11:57:56.344Z,66.63
2022-10-13T11:58:56.359Z,66.53
2022-10-13T11:59:56.313Z,66.36
2022-10-13T12:00:56.321Z,67.16
2022-10-13T12:01:56.307Z,67.27
2022-10-13T12:02:56.334Z,66.36
2022-10-13T12:03:56.272Z,66.36
2022-10-13T12:04:56.375Z,66.46
2022-10-13T12:05:56.253Z,66.76
2022-10-13T12:06:56.255Z,66.05
2022-10-13T12:07:56.226Z,65.72
2022-10-13T12:08:56.218Z,66.13
2022-10-13T12:09:56.290Z,66.86
2022-10-13T12:10:56.198Z,66.66
2022-10-13T12:11:56.194Z,66.76
2022-10-13T12:12:56.178Z,67.10
2022-10-13T12:13:56.181Z,67.16
2022-10-13T12:14:57.803Z,67.36
2022-10-13T12:15:56.139Z,67.60
2022-10-13T12:17:56.117Z,67.60
2022-10-13T12:18:56.110Z,67.50
2022-10-13T12:19:56.094Z,67.67
2022-10-13T12:20:56.131Z,67.80
2022-10-13T12:21:56.085Z,67.80
2022-10-13T12:22:56.066Z,67.47
2022-10-13T12:23:56.051Z,67.70
2022-10-13T12:24:56.044Z,67.70
2022-10-13T12:25:56.030Z,67.57
2022-10-13T12:26:56.034Z,67.50
2022-10-13T12:27:56.024Z,67.57
2022-10-13T12:28:56.071Z,67.80
2022-10-13T12:29:56.060Z,67.80
2022-10-13T12:30:55.980Z,67.60
2022-10-13T12:31:55.975Z,67.07
2022-10-13T12:32:55.971Z,66.29
2022-10-13T12:33:55.953Z,65.78
2022-10-13T12:34:55.932Z,66.46
2022-10-13T12:35:55.923Z,65.48
2022-10-13T12:36:55.921Z,64.95
2022-10-13T12:37:55.898Z,65.65
2022-10-13T12:38:55.896Z,65.38
2022-10-13T12:39:55.888Z,65.08
2022-10-13T12:40:55.866Z,64.95
2022-10-13T12:41:55.865Z,64.67
2022-10-13T12:42:55.844Z,64.17
2022-10-13T12:43:55.832Z,64.17
2022-10-13T12:44:55.823Z,64.17
2022-10-13T12:45:55.811Z,64.07
2022-10-13T12:46:55.809Z,64.14
2022-10-13T12:47:55.810Z,63.76
2022-10-13T12:48:55.802Z,63.56
2022-10-13T12:49:55.766Z,64.17
2022-10-13T12:50:55.756Z,64.17
2022-10-13T12:51:55.755Z,64.17
2022-10-13T12:52:55.735Z,64.58
2022-10-13T12:53:55.725Z,64.37